Main page
Satellite images 10-day forecastsClimateMarine weather Cyclones Lightning AirportsFAQ Newsletter About
Weather : Europe Africa North America South America Asia Australia-Oceania Others
Languages Contact

Waddington, England

RAF Waddington

latitude: 53-10N, longitude: 000-31W, elevation: 68 m


METAR: EGXW 010650Z 22011KT CAVOK 13/09 Q1014 BLU NOSIG
TAF: EGXW 010436Z 0106/0115 21010KT 9999 SCT030

Time: 08:43 (07:43 UTC)

Current weather observation

The report was made 53 minutes ago, at 06:50 UTC
Wind 11 kt from the Southwest
Temperature 13°C
Humidity 77%
Pressure 1014 hPa
Visibility 10 km or more
no clouds below 1500 m and no cumulonimbus

Change units

Forecast

The report was made 3 hours and 7 minutes ago, at 04:36 UTC
Forecast valid from 01 at 06 UTC to 01 at 15 UTC
Wind 10 kt from the South/Southwest
Visibility 10 km or more
Scattered clouds at a height of 3000 ft
The information on this site is subject to a disclaimer
Weather : Europe Africa North America South America Asia Australia-Oceania Others
Satellite images 10-day forecastsClimateMarine weather Cyclones Lightning AirportsFAQ Languages Contact Newsletter About